createdAt,value
2022-12-11T00:01:33.946Z,4.34
2022-12-11T00:04:36.710Z,4.03
2022-12-11T00:07:39.181Z,4.04
2022-12-11T00:10:48.735Z,3.98
2022-12-11T00:13:51.257Z,4.02
2022-12-11T00:16:54.141Z,4.11
2022-12-11T00:19:58.858Z,4.25
2022-12-11T00:23:02.433Z,3.96
2022-12-11T00:26:09.429Z,3.89
2022-12-11T00:29:15.953Z,3.87
2022-12-11T00:32:18.451Z,4.08
2022-12-11T00:35:21.504Z,4.13
2022-12-11T00:38:24.346Z,4.02
2022-12-11T00:41:27.373Z,3.94
2022-12-11T00:44:29.840Z,4.16
2022-12-11T00:47:32.654Z,4.09
2022-12-11T00:50:36.226Z,4.08
2022-12-11T00:53:39.712Z,4.08
2022-12-11T00:56:42.693Z,3.96
2022-12-11T00:59:45.502Z,3.84
2022-12-11T01:02:48.746Z,3.88
2022-12-11T01:05:55.318Z,3.71
2022-12-11T01:09:16.461Z,3.92
2022-12-11T01:12:19.343Z,3.81
2022-12-11T01:15:24.065Z,3.45
2022-12-11T01:18:27.669Z,3.56
2022-12-11T01:21:30.338Z,3.52
2022-12-11T01:24:33.557Z,3.66
2022-12-11T01:27:37.587Z,3.73
2022-12-11T01:30:43.013Z,3.61
2022-12-11T01:33:45.714Z,3.71
2022-12-11T01:36:48.532Z,3.63
2022-12-11T01:39:51.379Z,3.58
2022-12-11T01:42:54.182Z,3.68
2022-12-11T01:45:56.669Z,3.65
2022-12-11T01:49:01.183Z,3.71
2022-12-11T01:52:09.225Z,3.53
2022-12-11T01:55:12.776Z,3.60
2022-12-11T01:58:17.440Z,3.51
2022-12-11T02:01:47.984Z,3.35
2022-12-11T02:04:51.996Z,3.37
2022-12-11T02:07:58.853Z,3.17
2022-12-11T02:11:20.089Z,3.21
2022-12-11T02:14:55.914Z,3.16
2022-12-11T02:18:23.878Z,3.33
2022-12-11T02:21:35.709Z,3.27
2022-12-11T02:25:03.590Z,3.15
2022-12-11T02:28:15.231Z,3.16
2022-12-11T02:31:49.702Z,3.10
2022-12-11T02:35:07.988Z,2.98
2022-12-11T02:38:16.867Z,3.17
2022-12-11T02:41:21.902Z,3.23
2022-12-11T02:44:29.527Z,3.09
2022-12-11T02:47:33.556Z,2.89
2022-12-11T02:50:42.605Z,2.77
2022-12-11T02:53:46.748Z,2.72
2022-12-11T02:57:06.398Z,2.71
2022-12-11T03:00:09.690Z,2.48
2022-12-11T03:03:13.277Z,2.57
2022-12-11T03:06:20.446Z,2.62
2022-12-11T03:09:23.700Z,2.31
2022-12-11T03:12:33.185Z,2.38
2022-12-11T03:16:13.425Z,2.41
2022-12-11T03:19:36.274Z,2.18
2022-12-11T03:22:57.202Z,2.35
2022-12-11T03:26:06.401Z,2.21
2022-12-11T03:29:23.228Z,2.15
2022-12-11T03:32:35.619Z,2.28
2022-12-11T03:35:48.717Z,2.25
2022-12-11T03:39:02.244Z,2.06
2022-12-11T03:42:10.061Z,2.17
2022-12-11T03:45:14.616Z,2.10
2022-12-11T03:48:20.140Z,2.00
2022-12-11T03:51:24.794Z,1.91
2022-12-11T03:54:28.405Z,1.99
2022-12-11T03:57:35.139Z,2.12
2022-12-11T04:00:38.501Z,2.31
2022-12-11T04:03:42.639Z,2.14
2022-12-11T04:06:45.369Z,1.90
2022-12-11T04:09:48.614Z,1.80
2022-12-11T04:12:51.383Z,2.04
2022-12-11T04:15:54.523Z,2.09
2022-12-11T04:19:16.284Z,2.15
2022-12-11T04:22:38.521Z,1.98
2022-12-11T04:25:41.215Z,1.94
2022-12-11T04:28:47.190Z,2.03
2022-12-11T04:31:50.729Z,1.90
2022-12-11T04:34:53.527Z,2.01
2022-12-11T04:37:56.166Z,2.02
2022-12-11T04:41:05.141Z,1.90
2022-12-11T04:44:08.306Z,1.94
2022-12-11T04:47:11.458Z,1.89
2022-12-11T04:50:17.858Z,1.81
2022-12-11T04:53:23.141Z,1.82
2022-12-11T04:56:25.742Z,1.75
2022-12-11T04:59:28.625Z,2.08
2022-12-11T05:02:35.211Z,2.03
2022-12-11T05:05:38.108Z,1.86
2022-12-11T05:08:42.411Z,1.84
2022-12-11T05:11:45.280Z,1.91
2022-12-11T05:14:47.853Z,1.88
2022-12-11T05:17:50.760Z,1.94
2022-12-11T05:21:01.320Z,2.07
2022-12-11T05:24:04.553Z,2.02
2022-12-11T05:27:07.598Z,2.09
2022-12-11T05:30:12.389Z,1.96
2022-12-11T05:33:15.020Z,2.06
2022-12-11T05:36:24.528Z,1.98
2022-12-11T05:39:27.170Z,2.01
2022-12-11T05:42:32.289Z,2.13
2022-12-11T05:45:34.875Z,1.71
2022-12-11T05:48:38.517Z,1.98
2022-12-11T05:51:42.162Z,1.72
2022-12-11T05:54:44.963Z,1.85
2022-12-11T05:57:47.463Z,1.87
2022-12-11T06:00:50.210Z,1.74
2022-12-11T06:03:54.250Z,1.87
2022-12-11T06:06:56.790Z,2.01
2022-12-11T06:09:59.587Z,1.91
2022-12-11T06:13:06.613Z,1.74
2022-12-11T06:16:10.820Z,1.76
2022-12-11T06:19:15.306Z,1.68
2022-12-11T06:22:18.218Z,1.74
2022-12-11T06:25:20.804Z,1.74
2022-12-11T06:28:23.819Z,1.82
2022-12-11T06:31:26.550Z,1.79
2022-12-11T06:34:29.526Z,1.80
2022-12-11T06:37:32.073Z,1.95
2022-12-11T06:40:34.980Z,1.84
2022-12-11T06:43:42.244Z,1.89
2022-12-11T06:46:45.555Z,1.86
2022-12-11T06:49:48.534Z,2.20
2022-12-11T06:52:51.518Z,2.12
2022-12-11T06:55:53.977Z,1.98
2022-12-11T06:59:05.699Z,2.07
2022-12-11T07:02:13.564Z,2.03
2022-12-11T07:05:16.710Z,1.99
2022-12-11T07:08:19.846Z,2.00
2022-12-11T07:11:23.547Z,2.39
2022-12-11T07:14:26.184Z,2.25
2022-12-11T07:17:29.998Z,2.11
2022-12-11T07:20:37.774Z,2.22
2022-12-11T07:23:41.549Z,2.37
2022-12-11T07:26:44.187Z,2.11
2022-12-11T07:29:47.053Z,2.29
2022-12-11T07:32:50.238Z,2.31
2022-12-11T07:35:53.258Z,2.27
2022-12-11T07:38:56.549Z,2.59
2022-12-11T07:41:59.739Z,2.56
2022-12-11T07:45:09.128Z,2.69
2022-12-11T07:48:13.714Z,2.39
2022-12-11T07:51:30.629Z,2.36
2022-12-11T07:54:33.922Z,2.73
2022-12-11T07:57:37.454Z,2.45
2022-12-11T08:00:45.298Z,2.58
2022-12-11T08:03:49.267Z,2.58
2022-12-11T08:06:51.848Z,2.62
2022-12-11T08:09:54.752Z,2.58
2022-12-11T08:12:57.424Z,2.50
2022-12-11T08:16:09.824Z,2.79
2022-12-11T08:19:13.124Z,2.46
2022-12-11T08:22:16.137Z,2.54
2022-12-11T08:25:18.880Z,2.72
2022-12-11T08:28:21.684Z,3.23
2022-12-11T08:31:30.943Z,3.10
2022-12-11T08:34:34.062Z,3.03
2022-12-11T08:37:38.503Z,2.62
2022-12-11T08:40:41.690Z,2.75
2022-12-11T08:43:44.810Z,2.66
2022-12-11T08:46:48.155Z,2.46
2022-12-11T08:49:51.674Z,2.58
2022-12-11T08:52:59.540Z,3.08
2022-12-11T08:56:13.589Z,2.91
2022-12-11T08:59:17.513Z,2.63
2022-12-11T09:02:23.174Z,3.02
2022-12-11T09:05:26.544Z,3.03
2022-12-11T09:08:29.928Z,2.88
2022-12-11T09:11:35.747Z,2.83
2022-12-11T09:14:38.295Z,3.02
2022-12-11T09:17:41.220Z,3.30
2022-12-11T09:20:44.033Z,2.92
2022-12-11T09:23:49.319Z,3.07
2022-12-11T09:26:52.150Z,2.82
2022-12-11T09:29:55.065Z,2.56
2022-12-11T09:32:57.618Z,2.52
2022-12-11T09:36:02.830Z,2.75
2022-12-11T09:39:07.514Z,2.54
2022-12-11T09:42:31.571Z,2.53
2022-12-11T09:45:34.165Z,2.98
2022-12-11T09:48:38.603Z,2.93
2022-12-11T09:51:51.340Z,3.18
2022-12-11T09:55:02.533Z,3.10
2022-12-11T09:58:27.487Z,3.14
2022-12-11T10:01:46.020Z,2.77
2022-12-11T10:05:15.303Z,2.89
2022-12-11T10:08:43.362Z,2.91
2022-12-11T10:11:56.892Z,3.01
2022-12-11T10:15:18.915Z,3.13
2022-12-11T10:18:25.527Z,2.78
2022-12-11T10:21:36.922Z,2.95
2022-12-11T10:28:17.144Z,2.88
2022-12-11T10:31:29.710Z,2.54
2022-12-11T10:34:44.167Z,2.76
2022-12-11T10:37:47.080Z,2.51
2022-12-11T10:41:11.934Z,2.40
2022-12-11T10:44:23.778Z,2.39
2022-12-11T10:47:27.081Z,2.70
2022-12-11T10:50:30.483Z,2.60
2022-12-11T10:53:34.318Z,2.68
2022-12-11T10:56:38.182Z,2.71
2022-12-11T10:59:43.674Z,2.75
2022-12-11T11:02:46.910Z,2.45
2022-12-11T11:05:50.777Z,2.50
2022-12-11T11:08:57.458Z,2.93
2022-12-11T11:12:06.017Z,2.76
2022-12-11T11:15:14.456Z,2.56
2022-12-11T11:18:26.582Z,2.75
2022-12-11T11:21:31.879Z,2.65
2022-12-11T11:24:47.968Z,2.67
2022-12-11T11:28:15.578Z,2.71
2022-12-11T11:31:21.213Z,2.56
2022-12-11T11:34:26.192Z,2.74
2022-12-11T11:37:34.432Z,2.63
2022-12-11T11:40:43.145Z,2.99
2022-12-11T11:43:53.124Z,2.96
2022-12-11T11:47:01.038Z,3.00
2022-12-11T11:50:22.728Z,2.94
2022-12-11T11:53:38.026Z,3.02
2022-12-11T11:56:40.473Z,2.83
2022-12-11T11:59:49.924Z,2.92
2022-12-11T12:03:01.287Z,2.71
2022-12-11T12:06:32.302Z,2.81
2022-12-11T12:09:54.010Z,3.05
2022-12-11T12:13:30.178Z,2.66
2022-12-11T12:17:14.297Z,2.71
2022-12-11T12:20:32.702Z,2.57
2022-12-11T12:23:53.666Z,2.90
2022-12-11T12:27:17.584Z,2.54
2022-12-11T12:30:36.854Z,2.81
2022-12-11T12:33:58.282Z,2.50
2022-12-11T12:37:25.622Z,2.91
2022-12-11T12:41:01.091Z,2.67
2022-12-11T12:44:13.587Z,2.98
2022-12-11T12:47:18.514Z,2.83
2022-12-11T12:50:26.422Z,2.80
2022-12-11T12:53:35.918Z,3.06
2022-12-11T12:56:40.695Z,3.08
2022-12-11T12:59:54.474Z,2.73
2022-12-11T13:03:13.027Z,2.79
2022-12-11T13:06:16.146Z,2.95
2022-12-11T13:09:28.094Z,3.04
2022-12-11T13:12:43.944Z,2.93
2022-12-11T13:15:46.968Z,2.76
2022-12-11T13:18:49.875Z,2.74
2022-12-11T13:22:11.122Z,2.82
2022-12-11T13:25:31.227Z,3.01
2022-12-11T13:28:39.938Z,3.03
2022-12-11T13:31:45.483Z,2.93
2022-12-11T13:34:58.529Z,2.70
2022-12-11T13:38:15.711Z,3.01
2022-12-11T13:41:22.204Z,3.00
2022-12-11T13:44:30.677Z,2.76
2022-12-11T13:47:46.292Z,2.83
2022-12-11T13:50:52.171Z,2.99
2022-12-11T13:54:17.339Z,3.09
2022-12-11T13:57:22.929Z,3.01
2022-12-11T14:00:30.435Z,2.64
2022-12-11T14:03:34.063Z,2.56
2022-12-11T14:06:38.937Z,2.77
2022-12-11T14:09:46.580Z,2.87
2022-12-11T14:12:57.620Z,2.72
2022-12-11T14:16:01.486Z,2.58
2022-12-11T14:19:07.906Z,2.55
2022-12-11T14:22:19.601Z,2.59
2022-12-11T14:25:26.668Z,2.66
2022-12-11T14:28:45.138Z,2.53
2022-12-11T14:31:51.268Z,2.50
2022-12-11T14:34:55.418Z,2.53
2022-12-11T14:38:02.576Z,2.38
2022-12-11T14:41:28.242Z,2.49
2022-12-11T14:44:38.738Z,2.40
2022-12-11T14:47:46.105Z,2.43
2022-12-11T14:50:55.104Z,2.18
2022-12-11T14:53:58.868Z,2.22
2022-12-11T14:57:06.622Z,2.21
2022-12-11T15:00:22.304Z,2.05
2022-12-11T15:03:34.326Z,2.10
2022-12-11T15:06:49.685Z,2.02
2022-12-11T15:09:58.977Z,1.98
2022-12-11T15:13:07.172Z,1.95
2022-12-11T15:16:23.176Z,1.94
2022-12-11T15:19:36.527Z,1.84
2022-12-11T15:22:44.591Z,1.79
2022-12-11T15:25:57.969Z,1.98
2022-12-11T15:29:04.408Z,2.16
2022-12-11T15:32:14.192Z,1.93
2022-12-11T15:35:26.182Z,1.84
2022-12-11T15:38:39.597Z,1.93
2022-12-11T15:41:43.223Z,1.88
2022-12-11T15:44:46.621Z,2.06
2022-12-11T15:47:49.796Z,1.79
2022-12-11T15:51:00.704Z,2.06
2022-12-11T15:54:04.744Z,1.86
2022-12-11T15:57:15.283Z,2.17
2022-12-11T16:00:21.896Z,1.93
2022-12-11T16:03:25.801Z,1.96
2022-12-11T16:06:28.831Z,1.91
2022-12-11T16:09:34.545Z,1.76
2022-12-11T16:12:37.218Z,1.87
2022-12-11T16:15:45.408Z,2.00
2022-12-11T16:18:48.342Z,1.84
2022-12-11T16:21:52.387Z,1.74
2022-12-11T16:24:55.585Z,1.77
2022-12-11T16:28:01.517Z,1.75
2022-12-11T16:31:04.131Z,1.68
2022-12-11T16:34:07.157Z,1.82
2022-12-11T16:37:10.278Z,1.82
2022-12-11T16:40:14.662Z,1.72
2022-12-11T16:43:17.409Z,1.74
2022-12-11T16:46:22.433Z,1.71
2022-12-11T16:49:25.368Z,1.83
2022-12-11T16:52:28.776Z,1.98
2022-12-11T16:55:31.655Z,1.86
2022-12-11T16:58:34.937Z,1.83
2022-12-11T17:01:41.141Z,1.68
2022-12-11T17:04:55.165Z,1.83
2022-12-11T17:08:05.323Z,1.79
2022-12-11T17:11:16.912Z,1.70
2022-12-11T17:14:20.450Z,1.86
2022-12-11T17:17:24.874Z,1.64
2022-12-11T17:20:35.326Z,1.61
2022-12-11T17:23:39.650Z,1.76
2022-12-11T17:26:44.793Z,1.83
2022-12-11T17:29:50.183Z,1.52
2022-12-11T17:32:58.786Z,1.44
2022-12-11T17:36:04.573Z,1.38
2022-12-11T17:39:10.274Z,1.60
2022-12-11T17:42:13.502Z,1.44
2022-12-11T17:45:16.121Z,1.35
2022-12-11T17:48:22.493Z,1.24
2022-12-11T17:51:25.809Z,1.41
2022-12-11T17:54:29.088Z,1.41
2022-12-11T17:57:31.859Z,1.52
2022-12-11T18:00:39.012Z,1.49
2022-12-11T18:03:45.489Z,1.48
2022-12-11T18:06:48.034Z,1.35
2022-12-11T18:09:56.890Z,1.43
2022-12-11T18:13:00.998Z,1.39
2022-12-11T18:16:08.394Z,1.25
2022-12-11T18:19:12.457Z,1.54
2022-12-11T18:22:15.521Z,1.16
2022-12-11T18:25:18.764Z,1.15
2022-12-11T18:28:22.795Z,1.38
2022-12-11T18:31:25.778Z,1.44
2022-12-11T18:34:32.603Z,1.36
2022-12-11T18:37:35.930Z,1.50
2022-12-11T18:40:41.246Z,1.25
2022-12-11T18:43:45.571Z,1.06
2022-12-11T18:46:52.849Z,1.06
2022-12-11T18:49:55.825Z,1.16
2022-12-11T18:52:58.816Z,1.12
2022-12-11T18:56:07.630Z,1.39
2022-12-11T18:59:15.715Z,1.19
2022-12-11T19:02:22.594Z,1.17
2022-12-11T19:05:30.769Z,1.00
2022-12-11T19:08:34.077Z,0.96
2022-12-11T19:11:43.538Z,1.07
2022-12-11T19:14:46.482Z,1.32
2022-12-11T19:17:49.699Z,1.26
2022-12-11T19:21:03.146Z,1.02
2022-12-11T19:24:16.956Z,1.26
2022-12-11T19:27:19.734Z,1.43
2022-12-11T19:30:23.860Z,1.17
2022-12-11T19:33:26.720Z,1.03
2022-12-11T19:36:30.883Z,0.92
2022-12-11T19:39:33.931Z,1.18
2022-12-11T19:42:39.545Z,1.05
2022-12-11T19:45:42.651Z,0.92
2022-12-11T19:48:48.446Z,0.88
2022-12-11T19:51:51.439Z,0.92
2022-12-11T19:54:57.011Z,1.07
2022-12-11T19:58:00.525Z,0.96
2022-12-11T20:01:07.581Z,0.85
2022-12-11T20:04:13.842Z,0.98
2022-12-11T20:07:16.861Z,1.17
2022-12-11T20:10:20.216Z,1.18
2022-12-11T20:13:23.280Z,1.07
2022-12-11T20:16:46.252Z,1.08
2022-12-11T20:19:52.290Z,0.85
2022-12-11T20:22:58.620Z,0.86
2022-12-11T20:26:22.805Z,0.94
2022-12-11T20:29:25.870Z,1.02
2022-12-11T20:32:28.480Z,1.12
2022-12-11T20:35:31.340Z,0.84
2022-12-11T20:38:34.728Z,0.92
2022-12-11T20:41:37.979Z,0.75
2022-12-11T20:44:45.706Z,0.87
2022-12-11T20:47:51.728Z,0.84
2022-12-11T20:51:00.481Z,0.86
2022-12-11T20:54:03.949Z,0.49
2022-12-11T20:57:06.738Z,0.51
2022-12-11T21:00:13.105Z,0.47
2022-12-11T21:03:16.054Z,0.34
2022-12-11T21:06:19.178Z,0.41
2022-12-11T21:09:24.684Z,0.36
2022-12-11T21:12:31.518Z,0.18
2022-12-11T21:15:38.990Z,0.35
2022-12-11T21:18:45.524Z,0.32
2022-12-11T21:21:49.190Z,0.47
2022-12-11T21:24:51.986Z,0.58
2022-12-11T21:27:54.624Z,0.44
2022-12-11T21:31:02.811Z,0.37
2022-12-11T21:34:05.797Z,0.13
2022-12-11T21:37:08.911Z,0.39
2022-12-11T21:40:13.787Z,0.60
2022-12-11T21:43:16.641Z,0.43
2022-12-11T21:46:22.067Z,0.25
2022-12-11T21:49:27.655Z,0.33
2022-12-11T21:52:31.010Z,0.57
2022-12-11T21:55:33.867Z,0.22
2022-12-11T21:58:38.830Z,-0.03
2022-12-11T22:01:43.935Z,-0.22
2022-12-11T22:04:47.512Z,0.03
2022-12-11T22:07:50.088Z,-0.08
2022-12-11T22:10:53.728Z,-0.16
2022-12-11T22:13:56.666Z,-0.12
2022-12-11T22:16:59.629Z,-0.12
2022-12-11T22:20:03.419Z,-0.09
2022-12-11T22:23:06.392Z,0.09
2022-12-11T22:26:15.319Z,0.12
2022-12-11T22:29:18.248Z,-0.21
2022-12-11T22:32:21.010Z,0.01
2022-12-11T22:35:27.140Z,-0.25
2022-12-11T22:38:30.237Z,-0.25
2022-12-11T22:41:33.199Z,-0.10
2022-12-11T22:44:35.904Z,-0.14
2022-12-11T22:47:39.310Z,-0.20
2022-12-11T22:50:43.780Z,-0.34
2022-12-11T22:53:47.344Z,-0.41
2022-12-11T22:56:51.438Z,-0.46
2022-12-11T22:59:54.758Z,-0.61
2022-12-11T23:02:57.429Z,-0.60
2022-12-11T23:06:05.028Z,-0.43
2022-12-11T23:09:08.599Z,-0.46
2022-12-11T23:12:11.628Z,-0.51
2022-12-11T23:15:14.500Z,-0.53
2022-12-11T23:18:17.710Z,-0.57
2022-12-11T23:21:21.848Z,-0.43
2022-12-11T23:24:24.818Z,-0.47
2022-12-11T23:27:27.484Z,-0.52
2022-12-11T23:30:30.633Z,-0.52
2022-12-11T23:33:33.510Z,-0.65
2022-12-11T23:36:37.504Z,-0.69
2022-12-11T23:39:40.072Z,-0.66
2022-12-11T23:42:42.993Z,-0.55
2022-12-11T23:45:46.407Z,-0.81
2022-12-11T23:48:50.331Z,-0.95
2022-12-11T23:51:52.962Z,-0.75
2022-12-11T23:54:55.822Z,-0.41
2022-12-11T23:57:58.862Z,-0.67
